sensor_id;sensor_type;location;lat;lon;timestamp;P1;durP1;ratioP1;P2;durP2;ratioP2
76723;SDS011;65650;53.126;17.950;2022-12-07T02:38:55;63.30;;;18.50;;
76723;SDS011;65650;53.126;17.950;2022-12-07T02:41:31;51.30;;;16.20;;
76723;SDS011;65650;53.126;17.950;2022-12-07T02:44:01;67.90;;;20.40;;
76723;SDS011;65650;53.126;17.950;2022-12-07T02:46:29;50.70;;;14.40;;
76723;SDS011;65650;53.126;17.950;2022-12-07T02:48:56;53.00;;;16.40;;
76723;SDS011;65650;53.126;17.950;2022-12-07T02:51:25;40.80;;;12.60;;
76723;SDS011;65650;53.126;17.950;2022-12-07T02:53:52;39.80;;;12.30;;
76723;SDS011;65650;53.126;17.950;2022-12-07T02:59:24;38.80;;;15.20;;
76723;SDS011;65650;53.126;17.950;2022-12-07T03:07:00;23.10;;;9.20;;
76723;SDS011;65650;53.126;17.950;2022-12-07T03:12:50;18.90;;;7.20;;
76723;SDS011;65650;53.126;17.950;2022-12-07T03:15:27;13.70;;;6.50;;
76723;SDS011;65650;53.126;17.950;2022-12-07T03:17:56;13.30;;;6.10;;
76723;SDS011;65650;53.126;17.950;2022-12-07T03:20:23;14.70;;;6.60;;
76723;SDS011;65650;53.126;17.950;2022-12-07T03:22:51;15.70;;;7.30;;
76723;SDS011;65650;53.126;17.950;2022-12-07T03:25:19;15.20;;;6.80;;
76723;SDS011;65650;53.126;17.950;2022-12-07T03:27:49;16.60;;;6.90;;
76723;SDS011;65650;53.126;17.950;2022-12-07T03:30:19;12.80;;;5.30;;
76723;SDS011;65650;53.126;17.950;2022-12-07T03:32:48;14.70;;;5.90;;
76723;SDS011;65650;53.126;17.950;2022-12-07T03:35:18;9.10;;;3.90;;
76723;SDS011;65650;53.126;17.950;2022-12-07T03:37:50;12.70;;;6.00;;
76723;SDS011;65650;53.126;17.950;2022-12-07T03:40:19;12.50;;;6.10;;
76723;SDS011;65650;53.126;17.950;2022-12-07T03:42:49;16.20;;;7.80;;
76723;SDS011;65650;53.126;17.950;2022-12-07T03:45:16;25.80;;;10.20;;
76723;SDS011;65650;53.126;17.950;2022-12-07T03:50:38;15.60;;;6.20;;
76723;SDS011;65650;53.126;17.950;2022-12-07T03:53:09;15.70;;;6.30;;
76723;SDS011;65650;53.126;17.950;2022-12-07T03:55:39;10.70;;;4.60;;
76723;SDS011;65650;53.126;17.950;2022-12-07T03:58:07;12.20;;;5.10;;
76723;SDS011;65650;53.126;17.950;2022-12-07T04:00:35;14.20;;;6.10;;
76723;SDS011;65650;53.126;17.950;2022-12-07T04:03:01;11.30;;;4.60;;
76723;SDS011;65650;53.126;17.950;2022-12-07T04:05:28;13.60;;;5.80;;
76723;SDS011;65650;53.126;17.950;2022-12-07T04:07:55;11.70;;;4.90;;
76723;SDS011;65650;53.126;17.950;2022-12-07T04:10:21;11.10;;;5.10;;
76723;SDS011;65650;53.126;17.950;2022-12-07T04:12:47;10.70;;;4.50;;
76723;SDS011;65650;53.126;17.950;2022-12-07T04:15:14;15.70;;;7.10;;
76723;SDS011;65650;53.126;17.950;2022-12-07T04:17:40;10.50;;;4.70;;
76723;SDS011;65650;53.126;17.950;2022-12-07T04:20:07;13.30;;;4.60;;
76723;SDS011;65650;53.126;17.950;2022-12-07T04:22:34;10.90;;;4.20;;
76723;SDS011;65650;53.126;17.950;2022-12-07T04:25:00;9.30;;;4.10;;
76723;SDS011;65650;53.126;17.950;2022-12-07T04:27:27;11.70;;;5.10;;
76723;SDS011;65650;53.126;17.950;2022-12-07T04:29:53;9.60;;;4.00;;
76723;SDS011;65650;53.126;17.950;2022-12-07T04:32:22;16.30;;;7.40;;
76723;SDS011;65650;53.126;17.950;2022-12-07T04:34:48;48.80;;;17.30;;
76723;SDS011;65650;53.126;17.950;2022-12-07T04:37:15;20.80;;;7.50;;
76723;SDS011;65650;53.126;17.950;2022-12-07T04:39:41;16.00;;;6.20;;
76723;SDS011;65650;53.126;17.950;2022-12-07T04:42:10;19.90;;;6.70;;
76723;SDS011;65650;53.126;17.950;2022-12-07T04:44:36;23.90;;;8.30;;
76723;SDS011;65650;53.126;17.950;2022-12-07T04:47:03;12.60;;;4.90;;
76723;SDS011;65650;53.126;17.950;2022-12-07T04:49:29;14.00;;;4.90;;
76723;SDS011;65650;53.126;17.950;2022-12-07T04:51:56;24.40;;;8.10;;
76723;SDS011;65650;53.126;17.950;2022-12-07T04:54:22;12.30;;;5.00;;
76723;SDS011;65650;53.126;17.950;2022-12-07T04:56:49;9.80;;;3.50;;
76723;SDS011;65650;53.126;17.950;2022-12-07T04:59:15;11.20;;;4.10;;
76723;SDS011;65650;53.126;17.950;2022-12-07T05:01:42;12.30;;;4.50;;
76723;SDS011;65650;53.126;17.950;2022-12-07T05:04:09;13.70;;;6.10;;
76723;SDS011;65650;53.126;17.950;2022-12-07T05:06:35;9.70;;;4.20;;
76723;SDS011;65650;53.126;17.950;2022-12-07T05:09:03;8.80;;;3.40;;
76723;SDS011;65650;53.126;17.950;2022-12-07T05:11:29;10.40;;;4.30;;
76723;SDS011;65650;53.126;17.950;2022-12-07T05:16:32;9.00;;;3.70;;
76723;SDS011;65650;53.126;17.950;2022-12-07T05:18:58;7.80;;;3.10;;
76723;SDS011;65650;53.126;17.950;2022-12-07T05:21:25;12.60;;;4.60;;
76723;SDS011;65650;53.126;17.950;2022-12-07T05:23:51;10.40;;;3.80;;
76723;SDS011;65650;53.126;17.950;2022-12-07T05:26:18;11.50;;;4.80;;
76723;SDS011;65650;53.126;17.950;2022-12-07T05:28:45;8.50;;;2.90;;
76723;SDS011;65650;53.126;17.950;2022-12-07T05:31:11;8.20;;;3.20;;
76723;SDS011;65650;53.126;17.950;2022-12-07T05:33:38;8.50;;;3.10;;
76723;SDS011;65650;53.126;17.950;2022-12-07T05:36:04;12.50;;;4.30;;
76723;SDS011;65650;53.126;17.950;2022-12-07T05:38:33;9.30;;;4.20;;
76723;SDS011;65650;53.126;17.950;2022-12-07T05:41:03;14.90;;;6.50;;
76723;SDS011;65650;53.126;17.950;2022-12-07T05:43:30;17.10;;;7.70;;
76723;SDS011;65650;53.126;17.950;2022-12-07T05:45:57;15.50;;;6.00;;
76723;SDS011;65650;53.126;17.950;2022-12-07T05:48:24;14.20;;;5.50;;
76723;SDS011;65650;53.126;17.950;2022-12-07T05:50:51;9.90;;;4.20;;
76723;SDS011;65650;53.126;17.950;2022-12-07T05:53:18;11.60;;;4.60;;
76723;SDS011;65650;53.126;17.950;2022-12-07T05:55:44;16.00;;;5.10;;
76723;SDS011;65650;53.126;17.950;2022-12-07T05:58:11;17.00;;;5.00;;
76723;SDS011;65650;53.126;17.950;2022-12-07T06:00:56;16.30;;;6.50;;
76723;SDS011;65650;53.126;17.950;2022-12-07T06:03:23;14.00;;;5.90;;
76723;SDS011;65650;53.126;17.950;2022-12-07T06:05:49;17.70;;;7.00;;
76723;SDS011;65650;53.126;17.950;2022-12-07T06:08:18;15.30;;;5.40;;
76723;SDS011;65650;53.126;17.950;2022-12-07T06:10:44;22.30;;;8.20;;
76723;SDS011;65650;53.126;17.950;2022-12-07T06:13:12;17.60;;;6.20;;
76723;SDS011;65650;53.126;17.950;2022-12-07T06:15:39;20.80;;;6.80;;
76723;SDS011;65650;53.126;17.950;2022-12-07T06:18:05;15.40;;;5.40;;
76723;SDS011;65650;53.126;17.950;2022-12-07T06:20:32;19.10;;;6.60;;
76723;SDS011;65650;53.126;17.950;2022-12-07T06:22:58;31.80;;;10.30;;
76723;SDS011;65650;53.126;17.950;2022-12-07T06:25:25;21.90;;;7.60;;
76723;SDS011;65650;53.126;17.950;2022-12-07T06:27:51;20.00;;;6.70;;
76723;SDS011;65650;53.126;17.950;2022-12-07T06:30:18;21.80;;;8.20;;
76723;SDS011;65650;53.126;17.950;2022-12-07T06:32:44;24.20;;;7.30;;
76723;SDS011;65650;53.126;17.950;2022-12-07T06:35:11;22.80;;;8.60;;
76723;SDS011;65650;53.126;17.950;2022-12-07T06:37:37;23.30;;;7.30;;
76723;SDS011;65650;53.126;17.950;2022-12-07T06:40:04;17.00;;;6.50;;
76723;SDS011;65650;53.126;17.950;2022-12-07T06:42:31;21.70;;;6.30;;
76723;SDS011;65650;53.126;17.950;2022-12-07T06:44:57;13.30;;;5.40;;
76723;SDS011;65650;53.126;17.950;2022-12-07T06:47:24;26.50;;;9.80;;
76723;SDS011;65650;53.126;17.950;2022-12-07T06:49:50;17.00;;;6.70;;
76723;SDS011;65650;53.126;17.950;2022-12-07T06:52:17;23.80;;;8.90;;
76723;SDS011;65650;53.126;17.950;2022-12-07T06:54:43;25.20;;;8.00;;
76723;SDS011;65650;53.126;17.950;2022-12-07T06:57:11;20.70;;;8.40;;
76723;SDS011;65650;53.126;17.950;2022-12-07T06:59:37;17.10;;;6.70;;
76723;SDS011;65650;53.126;17.950;2022-12-07T07:02:04;20.90;;;8.30;;
76723;SDS011;65650;53.126;17.950;2022-12-07T07:04:31;35.10;;;14.70;;
76723;SDS011;65650;53.126;17.950;2022-12-07T07:06:57;22.10;;;8.50;;
76723;SDS011;65650;53.126;17.950;2022-12-07T07:09:24;17.90;;;7.00;;
76723;SDS011;65650;53.126;17.950;2022-12-07T07:11:50;21.80;;;8.00;;
76723;SDS011;65650;53.126;17.950;2022-12-07T07:14:16;35.00;;;13.50;;
76723;SDS011;65650;53.126;17.950;2022-12-07T07:16:45;25.80;;;9.40;;
76723;SDS011;65650;53.126;17.950;2022-12-07T07:19:11;29.70;;;9.60;;
76723;SDS011;65650;53.126;17.950;2022-12-07T07:21:38;20.10;;;7.60;;
76723;SDS011;65650;53.126;17.950;2022-12-07T07:24:04;22.90;;;8.00;;
76723;SDS011;65650;53.126;17.950;2022-12-07T07:26:31;25.40;;;9.40;;
76723;SDS011;65650;53.126;17.950;2022-12-07T07:28:57;24.60;;;8.70;;
76723;SDS011;65650;53.126;17.950;2022-12-07T07:31:24;20.90;;;9.00;;
76723;SDS011;65650;53.126;17.950;2022-12-07T07:33:50;19.30;;;7.50;;
76723;SDS011;65650;53.126;17.950;2022-12-07T07:36:16;22.80;;;8.00;;
76723;SDS011;65650;53.126;17.950;2022-12-07T07:38:43;20.50;;;8.30;;
76723;SDS011;65650;53.126;17.950;2022-12-07T07:41:09;18.90;;;7.60;;
76723;SDS011;65650;53.126;17.950;2022-12-07T07:43:36;19.20;;;7.70;;
76723;SDS011;65650;53.126;17.950;2022-12-07T07:46:02;14.00;;;5.10;;
76723;SDS011;65650;53.126;17.950;2022-12-07T07:48:29;16.20;;;7.00;;
76723;SDS011;65650;53.126;17.950;2022-12-07T07:50:55;17.70;;;7.10;;
76723;SDS011;65650;53.126;17.950;2022-12-07T07:53:22;12.10;;;5.50;;
76723;SDS011;65650;53.126;17.950;2022-12-07T07:55:52;26.30;;;11.40;;
76723;SDS011;65650;53.126;17.950;2022-12-07T07:58:19;25.30;;;10.30;;
76723;SDS011;65650;53.126;17.950;2022-12-07T08:00:46;15.10;;;6.80;;
76723;SDS011;65650;53.126;17.950;2022-12-07T08:03:12;28.80;;;12.50;;
76723;SDS011;65650;53.126;17.950;2022-12-07T08:05:39;18.00;;;8.90;;
76723;SDS011;65650;53.126;17.950;2022-12-07T08:08:06;15.90;;;8.00;;
76723;SDS011;65650;53.126;17.950;2022-12-07T08:10:32;10.30;;;4.50;;
76723;SDS011;65650;53.126;17.950;2022-12-07T08:12:58;15.60;;;6.90;;
76723;SDS011;65650;53.126;17.950;2022-12-07T08:15:39;10.00;;;4.60;;
76723;SDS011;65650;53.126;17.950;2022-12-07T08:18:06;12.90;;;6.00;;
76723;SDS011;65650;53.126;17.950;2022-12-07T08:20:33;14.00;;;5.70;;
76723;SDS011;65650;53.126;17.950;2022-12-07T08:23:00;13.90;;;6.30;;
76723;SDS011;65650;53.126;17.950;2022-12-07T08:25:27;12.80;;;5.70;;
76723;SDS011;65650;53.126;17.950;2022-12-07T08:27:54;12.50;;;5.50;;
76723;SDS011;65650;53.126;17.950;2022-12-07T08:30:20;17.10;;;7.90;;
76723;SDS011;65650;53.126;17.950;2022-12-07T08:32:47;12.60;;;5.50;;
76723;SDS011;65650;53.126;17.950;2022-12-07T08:35:14;16.30;;;6.20;;
76723;SDS011;65650;53.126;17.950;2022-12-07T08:37:40;14.80;;;5.90;;
76723;SDS011;65650;53.126;17.950;2022-12-07T08:40:08;11.70;;;5.20;;
76723;SDS011;65650;53.126;17.950;2022-12-07T08:42:34;11.60;;;5.50;;
76723;SDS011;65650;53.126;17.950;2022-12-07T08:45:07;11.80;;;5.50;;
76723;SDS011;65650;53.126;17.950;2022-12-07T08:47:34;16.40;;;7.70;;
76723;SDS011;65650;53.126;17.950;2022-12-07T08:50:01;10.40;;;4.90;;
76723;SDS011;65650;53.126;17.950;2022-12-07T08:52:30;9.30;;;3.90;;
76723;SDS011;65650;53.126;17.950;2022-12-07T08:54:57;12.80;;;4.70;;
76723;SDS011;65650;53.126;17.950;2022-12-07T08:57:24;8.70;;;3.70;;
76723;SDS011;65650;53.126;17.950;2022-12-07T08:59:51;6.60;;;2.70;;
76723;SDS011;65650;53.126;17.950;2022-12-07T09:02:17;8.00;;;3.90;;
76723;SDS011;65650;53.126;17.950;2022-12-07T09:04:44;10.10;;;3.90;;
76723;SDS011;65650;53.126;17.950;2022-12-07T09:07:10;12.50;;;5.50;;
76723;SDS011;65650;53.126;17.950;2022-12-07T09:09:37;10.10;;;4.50;;
76723;SDS011;65650;53.126;17.950;2022-12-07T09:12:04;14.50;;;7.50;;
76723;SDS011;65650;53.126;17.950;2022-12-07T09:14:31;13.20;;;6.30;;
76723;SDS011;65650;53.126;17.950;2022-12-07T09:17:07;13.10;;;5.70;;
76723;SDS011;65650;53.126;17.950;2022-12-07T09:19:33;17.90;;;7.60;;
76723;SDS011;65650;53.126;17.950;2022-12-07T09:22:00;11.30;;;5.50;;
76723;SDS011;65650;53.126;17.950;2022-12-07T09:24:27;7.90;;;3.00;;
76723;SDS011;65650;53.126;17.950;2022-12-07T09:26:53;5.30;;;2.70;;
76723;SDS011;65650;53.126;17.950;2022-12-07T09:29:20;9.00;;;4.30;;
76723;SDS011;65650;53.126;17.950;2022-12-07T09:31:46;9.50;;;4.40;;
76723;SDS011;65650;53.126;17.950;2022-12-07T09:34:13;13.30;;;6.40;;
76723;SDS011;65650;53.126;17.950;2022-12-07T09:36:39;10.70;;;4.60;;
76723;SDS011;65650;53.126;17.950;2022-12-07T09:39:06;10.20;;;3.90;;
76723;SDS011;65650;53.126;17.950;2022-12-07T09:41:32;13.00;;;5.40;;
76723;SDS011;65650;53.126;17.950;2022-12-07T09:44:04;12.20;;;4.60;;
76723;SDS011;65650;53.126;17.950;2022-12-07T09:46:33;10.50;;;4.10;;
76723;SDS011;65650;53.126;17.950;2022-12-07T09:49:00;12.10;;;5.40;;
76723;SDS011;65650;53.126;17.950;2022-12-07T09:51:27;12.10;;;5.40;;
76723;SDS011;65650;53.126;17.950;2022-12-07T09:53:54;14.30;;;6.30;;
76723;SDS011;65650;53.126;17.950;2022-12-07T09:56:22;14.40;;;5.70;;
76723;SDS011;65650;53.126;17.950;2022-12-07T09:58:49;13.00;;;5.00;;
76723;SDS011;65650;53.126;17.950;2022-12-07T10:01:18;11.30;;;4.60;;
76723;SDS011;65650;53.126;17.950;2022-12-07T10:03:48;12.50;;;5.20;;
76723;SDS011;65650;53.126;17.950;2022-12-07T10:06:15;13.30;;;5.10;;
76723;SDS011;65650;53.126;17.950;2022-12-07T10:08:42;11.00;;;4.90;;
76723;SDS011;65650;53.126;17.950;2022-12-07T10:11:10;9.20;;;4.50;;
76723;SDS011;65650;53.126;17.950;2022-12-07T10:13:38;8.40;;;3.40;;
76723;SDS011;65650;53.126;17.950;2022-12-07T10:16:05;10.00;;;4.70;;
76723;SDS011;65650;53.126;17.950;2022-12-07T10:18:39;10.30;;;4.10;;
76723;SDS011;65650;53.126;17.950;2022-12-07T10:23:37;11.20;;;5.20;;
76723;SDS011;65650;53.126;17.950;2022-12-07T10:26:18;16.60;;;7.00;;
76723;SDS011;65650;53.126;17.950;2022-12-07T10:28:45;10.60;;;3.80;;
76723;SDS011;65650;53.126;17.950;2022-12-07T10:31:15;9.20;;;3.90;;
76723;SDS011;65650;53.126;17.950;2022-12-07T10:33:53;14.80;;;5.90;;
76723;SDS011;65650;53.126;17.950;2022-12-07T10:36:34;9.70;;;4.00;;
76723;SDS011;65650;53.126;17.950;2022-12-07T10:39:12;9.60;;;4.50;;
76723;SDS011;65650;53.126;17.950;2022-12-07T10:44:25;12.40;;;5.90;;
76723;SDS011;65650;53.126;17.950;2022-12-07T10:46:58;13.40;;;6.40;;
76723;SDS011;65650;53.126;17.950;2022-12-07T10:49:31;8.40;;;4.00;;
76723;SDS011;65650;53.126;17.950;2022-12-07T10:54:54;13.00;;;5.90;;
76723;SDS011;65650;53.126;17.950;2022-12-07T11:02:36;13.60;;;6.50;;
76723;SDS011;65650;53.126;17.950;2022-12-07T11:13:28;12.40;;;5.90;;
76723;SDS011;65650;53.126;17.950;2022-12-07T11:16:00;10.80;;;4.90;;
76723;SDS011;65650;53.126;17.950;2022-12-07T11:18:31;11.30;;;5.30;;
76723;SDS011;65650;53.126;17.950;2022-12-07T11:21:06;10.80;;;4.90;;
76723;SDS011;65650;53.126;17.950;2022-12-07T11:34:06;11.30;;;5.10;;
76723;SDS011;65650;53.126;17.950;2022-12-07T11:36:37;11.20;;;5.20;;
76723;SDS011;65650;53.126;17.950;2022-12-07T11:39:10;8.60;;;4.40;;
76723;SDS011;65650;53.126;17.950;2022-12-07T11:41:39;10.70;;;5.30;;
76723;SDS011;65650;53.126;17.950;2022-12-07T11:44:07;8.90;;;4.10;;
76723;SDS011;65650;53.126;17.950;2022-12-07T11:46:45;10.10;;;4.50;;
76723;SDS011;65650;53.126;17.950;2022-12-07T11:51:59;8.90;;;4.40;;
76723;SDS011;65650;53.126;17.950;2022-12-07T11:54:32;6.80;;;3.20;;
76723;SDS011;65650;53.126;17.950;2022-12-07T11:57:04;8.90;;;4.40;;
76723;SDS011;65650;53.126;17.950;2022-12-07T11:59:38;8.10;;;4.00;;
76723;SDS011;65650;53.126;17.950;2022-12-07T12:02:13;9.50;;;4.70;;
76723;SDS011;65650;53.126;17.950;2022-12-07T12:04:55;9.30;;;4.20;;
76723;SDS011;65650;53.126;17.950;2022-12-07T12:07:25;9.90;;;5.10;;
76723;SDS011;65650;53.126;17.950;2022-12-07T12:09:54;8.80;;;3.90;;
76723;SDS011;65650;53.126;17.950;2022-12-07T12:15:13;11.50;;;5.10;;
76723;SDS011;65650;53.126;17.950;2022-12-07T12:23:14;10.80;;;5.10;;
76723;SDS011;65650;53.126;17.950;2022-12-07T12:25:46;9.70;;;4.60;;
76723;SDS011;65650;53.126;17.950;2022-12-07T12:31:04;14.90;;;6.10;;
76723;SDS011;65650;53.126;17.950;2022-12-07T12:33:31;13.00;;;4.90;;
76723;SDS011;65650;53.126;17.950;2022-12-07T12:39:07;12.40;;;4.80;;
76723;SDS011;65650;53.126;17.950;2022-12-07T12:49:15;15.80;;;7.50;;
76723;SDS011;65650;53.126;17.950;2022-12-07T12:52:00;10.10;;;4.40;;
76723;SDS011;65650;53.126;17.950;2022-12-07T12:54:30;8.00;;;3.50;;
76723;SDS011;65650;53.126;17.950;2022-12-07T12:59:33;10.90;;;6.70;;
76723;SDS011;65650;53.126;17.950;2022-12-07T13:10:03;10.90;;;4.60;;
76723;SDS011;65650;53.126;17.950;2022-12-07T13:12:30;20.40;;;9.80;;
76723;SDS011;65650;53.126;17.950;2022-12-07T13:14:57;10.90;;;5.20;;
76723;SDS011;65650;53.126;17.950;2022-12-07T13:20:02;11.60;;;5.20;;
76723;SDS011;65650;53.126;17.950;2022-12-07T13:25:40;11.80;;;5.10;;
76723;SDS011;65650;53.126;17.950;2022-12-07T13:27:51;25.60;;;12.30;;
76723;SDS011;65650;53.126;17.950;2022-12-07T13:30:20;15.80;;;6.30;;
76723;SDS011;65650;53.126;17.950;2022-12-07T13:32:51;17.20;;;9.40;;
76723;SDS011;65650;53.126;17.950;2022-12-07T13:38:35;14.10;;;6.10;;
76723;SDS011;65650;53.126;17.950;2022-12-07T13:41:16;9.60;;;4.00;;
76723;SDS011;65650;53.126;17.950;2022-12-07T13:43:44;10.00;;;5.00;;
76723;SDS011;65650;53.126;17.950;2022-12-07T13:46:11;9.40;;;3.70;;
76723;SDS011;65650;53.126;17.950;2022-12-07T13:48:44;12.10;;;5.60;;
76723;SDS011;65650;53.126;17.950;2022-12-07T13:51:18;12.40;;;5.80;;
76723;SDS011;65650;53.126;17.950;2022-12-07T13:53:49;9.70;;;3.80;;
76723;SDS011;65650;53.126;17.950;2022-12-07T13:56:16;17.50;;;8.10;;
76723;SDS011;65650;53.126;17.950;2022-12-07T13:58:42;12.80;;;6.00;;
76723;SDS011;65650;53.126;17.950;2022-12-07T14:01:09;9.10;;;4.40;;
76723;SDS011;65650;53.126;17.950;2022-12-07T14:03:36;12.60;;;5.80;;
76723;SDS011;65650;53.126;17.950;2022-12-07T14:06:04;15.20;;;6.50;;
76723;SDS011;65650;53.126;17.950;2022-12-07T14:08:31;14.00;;;6.70;;
76723;SDS011;65650;53.126;17.950;2022-12-07T14:10:57;44.50;;;17.10;;
76723;SDS011;65650;53.126;17.950;2022-12-07T14:13:32;22.80;;;9.30;;
76723;SDS011;65650;53.126;17.950;2022-12-07T14:16:13;16.50;;;7.30;;
76723;SDS011;65650;53.126;17.950;2022-12-07T14:18:43;15.30;;;7.30;;
76723;SDS011;65650;53.126;17.950;2022-12-07T14:23:37;10.20;;;5.10;;
76723;SDS011;65650;53.126;17.950;2022-12-07T14:26:08;11.90;;;5.10;;
76723;SDS011;65650;53.126;17.950;2022-12-07T14:28:37;10.30;;;4.60;;
76723;SDS011;65650;53.126;17.950;2022-12-07T14:31:07;12.10;;;6.10;;
76723;SDS011;65650;53.126;17.950;2022-12-07T14:33:34;8.80;;;3.40;;
76723;SDS011;65650;53.126;17.950;2022-12-07T14:36:01;10.60;;;4.80;;
76723;SDS011;65650;53.126;17.950;2022-12-07T14:38:27;8.10;;;4.00;;
76723;SDS011;65650;53.126;17.950;2022-12-07T14:40:54;7.70;;;4.10;;
76723;SDS011;65650;53.126;17.950;2022-12-07T14:43:41;8.00;;;4.10;;
76723;SDS011;65650;53.126;17.950;2022-12-07T14:46:08;10.40;;;4.20;;
76723;SDS011;65650;53.126;17.950;2022-12-07T14:48:35;8.40;;;3.40;;
76723;SDS011;65650;53.126;17.950;2022-12-07T14:51:02;10.50;;;4.60;;
76723;SDS011;65650;53.126;17.950;2022-12-07T14:53:29;10.90;;;4.60;;
76723;SDS011;65650;53.126;17.950;2022-12-07T14:55:57;12.20;;;6.00;;
76723;SDS011;65650;53.126;17.950;2022-12-07T14:58:24;8.20;;;4.20;;
76723;SDS011;65650;53.126;17.950;2022-12-07T15:00:50;9.70;;;3.90;;
76723;SDS011;65650;53.126;17.950;2022-12-07T15:03:17;12.20;;;5.30;;
76723;SDS011;65650;53.126;17.950;2022-12-07T15:05:43;14.40;;;7.10;;
76723;SDS011;65650;53.126;17.950;2022-12-07T15:08:11;10.80;;;5.60;;
76723;SDS011;65650;53.126;17.950;2022-12-07T15:10:38;11.70;;;4.80;;
76723;SDS011;65650;53.126;17.950;2022-12-07T15:13:06;9.50;;;4.30;;
76723;SDS011;65650;53.126;17.950;2022-12-07T15:15:52;9.30;;;4.40;;
76723;SDS011;65650;53.126;17.950;2022-12-07T15:18:19;6.40;;;6.70;;
76723;SDS011;65650;53.126;17.950;2022-12-07T15:20:46;12.40;;;5.00;;
76723;SDS011;65650;53.126;17.950;2022-12-07T15:23:13;14.50;;;6.70;;
76723;SDS011;65650;53.126;17.950;2022-12-07T15:25:40;11.00;;;5.30;;
76723;SDS011;65650;53.126;17.950;2022-12-07T15:28:06;12.00;;;5.00;;
76723;SDS011;65650;53.126;17.950;2022-12-07T15:30:33;12.20;;;5.70;;
76723;SDS011;65650;53.126;17.950;2022-12-07T15:32:59;10.20;;;4.40;;
76723;SDS011;65650;53.126;17.950;2022-12-07T15:35:26;10.20;;;4.50;;
76723;SDS011;65650;53.126;17.950;2022-12-07T15:37:52;12.50;;;5.50;;
76723;SDS011;65650;53.126;17.950;2022-12-07T15:40:19;11.40;;;4.60;;
76723;SDS011;65650;53.126;17.950;2022-12-07T15:42:45;12.40;;;5.40;;
76723;SDS011;65650;53.126;17.950;2022-12-07T15:45:12;9.70;;;4.20;;
76723;SDS011;65650;53.126;17.950;2022-12-07T15:47:40;10.00;;;5.10;;
76723;SDS011;65650;53.126;17.950;2022-12-07T15:50:08;11.10;;;5.20;;
76723;SDS011;65650;53.126;17.950;2022-12-07T15:52:35;7.90;;;3.80;;
76723;SDS011;65650;53.126;17.950;2022-12-07T15:55:02;11.70;;;5.00;;
76723;SDS011;65650;53.126;17.950;2022-12-07T15:57:29;7.80;;;3.70;;
76723;SDS011;65650;53.126;17.950;2022-12-07T15:59:56;11.90;;;6.00;;
76723;SDS011;65650;53.126;17.950;2022-12-07T16:02:23;9.80;;;4.20;;
76723;SDS011;65650;53.126;17.950;2022-12-07T16:04:49;14.20;;;5.50;;
76723;SDS011;65650;53.126;17.950;2022-12-07T16:07:16;18.90;;;8.50;;
76723;SDS011;65650;53.126;17.950;2022-12-07T16:09:44;13.40;;;4.80;;
76723;SDS011;65650;53.126;17.950;2022-12-07T16:12:11;23.90;;;9.90;;
76723;SDS011;65650;53.126;17.950;2022-12-07T16:14:38;12.90;;;5.10;;
76723;SDS011;65650;53.126;17.950;2022-12-07T16:17:05;10.50;;;4.40;;
76723;SDS011;65650;53.126;17.950;2022-12-07T16:19:32;13.20;;;5.40;;
76723;SDS011;65650;53.126;17.950;2022-12-07T16:21:58;13.90;;;5.40;;
76723;SDS011;65650;53.126;17.950;2022-12-07T16:24:25;19.40;;;8.10;;
76723;SDS011;65650;53.126;17.950;2022-12-07T16:26:52;30.70;;;10.50;;
76723;SDS011;65650;53.126;17.950;2022-12-07T16:29:19;18.80;;;8.40;;
76723;SDS011;65650;53.126;17.950;2022-12-07T16:31:46;23.80;;;8.50;;
76723;SDS011;65650;53.126;17.950;2022-12-07T16:34:13;23.70;;;9.30;;
76723;SDS011;65650;53.126;17.950;2022-12-07T16:36:39;14.70;;;5.50;;
76723;SDS011;65650;53.126;17.950;2022-12-07T16:39:06;19.90;;;6.20;;
76723;SDS011;65650;53.126;17.950;2022-12-07T16:41:33;19.40;;;6.40;;
76723;SDS011;65650;53.126;17.950;2022-12-07T16:44:01;13.90;;;5.20;;
76723;SDS011;65650;53.126;17.950;2022-12-07T16:46:28;18.10;;;6.30;;
76723;SDS011;65650;53.126;17.950;2022-12-07T16:48:55;16.50;;;6.60;;
76723;SDS011;65650;53.126;17.950;2022-12-07T16:51:21;11.70;;;5.20;;
76723;SDS011;65650;53.126;17.950;2022-12-07T16:53:48;23.50;;;8.40;;
76723;SDS011;65650;53.126;17.950;2022-12-07T16:56:15;19.00;;;7.20;;
76723;SDS011;65650;53.126;17.950;2022-12-07T16:58:42;15.50;;;6.10;;
76723;SDS011;65650;53.126;17.950;2022-12-07T17:01:10;23.40;;;9.70;;
76723;SDS011;65650;53.126;17.950;2022-12-07T17:03:37;15.50;;;6.50;;
76723;SDS011;65650;53.126;17.950;2022-12-07T17:06:03;11.50;;;5.20;;
76723;SDS011;65650;53.126;17.950;2022-12-07T17:08:30;14.90;;;7.00;;
76723;SDS011;65650;53.126;17.950;2022-12-07T17:10:56;15.60;;;7.10;;
76723;SDS011;65650;53.126;17.950;2022-12-07T17:13:22;11.10;;;5.00;;
76723;SDS011;65650;53.126;17.950;2022-12-07T17:16:18;13.90;;;5.90;;
76723;SDS011;65650;53.126;17.950;2022-12-07T17:18:44;17.00;;;6.60;;
76723;SDS011;65650;53.126;17.950;2022-12-07T17:21:11;15.30;;;5.80;;
76723;SDS011;65650;53.126;17.950;2022-12-07T17:23:38;28.70;;;11.20;;
76723;SDS011;65650;53.126;17.950;2022-12-07T17:26:05;12.20;;;6.40;;
76723;SDS011;65650;53.126;17.950;2022-12-07T17:28:32;21.10;;;8.70;;
76723;SDS011;65650;53.126;17.950;2022-12-07T17:30:59;19.80;;;6.50;;
76723;SDS011;65650;53.126;17.950;2022-12-07T17:33:26;19.30;;;8.10;;
76723;SDS011;65650;53.126;17.950;2022-12-07T17:35:52;14.80;;;6.70;;
76723;SDS011;65650;53.126;17.950;2022-12-07T17:38:19;16.40;;;6.60;;
76723;SDS011;65650;53.126;17.950;2022-12-07T17:40:45;12.70;;;5.10;;
76723;SDS011;65650;53.126;17.950;2022-12-07T17:43:12;11.10;;;4.80;;
76723;SDS011;65650;53.126;17.950;2022-12-07T17:45:38;16.60;;;7.30;;
76723;SDS011;65650;53.126;17.950;2022-12-07T17:48:05;25.80;;;9.20;;
76723;SDS011;65650;53.126;17.950;2022-12-07T17:50:31;22.40;;;7.00;;
76723;SDS011;65650;53.126;17.950;2022-12-07T17:53:16;13.30;;;4.60;;
76723;SDS011;65650;53.126;17.950;2022-12-07T17:55:43;15.20;;;5.40;;
76723;SDS011;65650;53.126;17.950;2022-12-07T17:58:09;15.00;;;6.60;;
76723;SDS011;65650;53.126;17.950;2022-12-07T18:00:37;10.90;;;5.10;;
76723;SDS011;65650;53.126;17.950;2022-12-07T18:03:04;11.90;;;3.90;;
76723;SDS011;65650;53.126;17.950;2022-12-07T18:05:32;20.40;;;6.20;;
76723;SDS011;65650;53.126;17.950;2022-12-07T18:07:59;12.70;;;5.10;;
76723;SDS011;65650;53.126;17.950;2022-12-07T18:10:25;13.60;;;5.00;;
76723;SDS011;65650;53.126;17.950;2022-12-07T18:12:52;16.60;;;5.70;;
76723;SDS011;65650;53.126;17.950;2022-12-07T18:15:38;9.60;;;4.00;;
76723;SDS011;65650;53.126;17.950;2022-12-07T18:18:05;10.20;;;3.90;;
76723;SDS011;65650;53.126;17.950;2022-12-07T18:20:31;9.20;;;3.30;;
76723;SDS011;65650;53.126;17.950;2022-12-07T18:22:58;11.20;;;3.40;;
76723;SDS011;65650;53.126;17.950;2022-12-07T18:25:24;12.90;;;4.20;;
76723;SDS011;65650;53.126;17.950;2022-12-07T18:27:51;9.20;;;3.30;;
76723;SDS011;65650;53.126;17.950;2022-12-07T18:30:17;13.80;;;3.80;;
76723;SDS011;65650;53.126;17.950;2022-12-07T18:32:44;9.60;;;4.00;;
76723;SDS011;65650;53.126;17.950;2022-12-07T18:35:10;7.90;;;3.30;;
76723;SDS011;65650;53.126;17.950;2022-12-07T18:37:36;6.60;;;2.60;;
76723;SDS011;65650;53.126;17.950;2022-12-07T18:40:03;11.90;;;4.40;;
76723;SDS011;65650;53.126;17.950;2022-12-07T18:42:33;6.90;;;2.90;;